createdAt,value
2023-05-22T00:01:05.191Z,7.90
2023-05-22T00:03:33.796Z,7.80
2023-05-22T00:06:01.910Z,7.35
2023-05-22T00:08:30.059Z,7.30
2023-05-22T00:10:58.502Z,7.05
2023-05-22T00:13:26.579Z,7.21
2023-05-22T00:15:54.786Z,7.60
2023-05-22T00:18:23.144Z,8.03
2023-05-22T00:20:52.246Z,7.77
2023-05-22T00:23:22.292Z,8.23
2023-05-22T00:25:51.109Z,7.62
2023-05-22T00:28:19.492Z,7.45
2023-05-22T00:30:47.558Z,7.48
2023-05-22T00:33:16.424Z,7.35
2023-05-22T00:35:44.377Z,7.22
2023-05-22T00:38:32.884Z,7.13
2023-05-22T00:41:02.793Z,6.92
2023-05-22T00:43:31.210Z,6.80
2023-05-22T00:45:59.325Z,6.90
2023-05-22T00:48:28.172Z,7.59
2023-05-22T00:50:58.329Z,7.74
2023-05-22T00:53:30.825Z,7.74
2023-05-22T00:56:00.081Z,8.70
2023-05-22T00:58:28.191Z,8.47
2023-05-22T01:00:56.602Z,8.14
2023-05-22T01:03:28.825Z,8.26
2023-05-22T01:05:57.389Z,8.35
2023-05-22T01:08:25.768Z,8.51
2023-05-22T01:11:02.740Z,8.43
2023-05-22T01:14:11.549Z,8.44
2023-05-22T01:17:48.460Z,8.84
2023-05-22T01:20:39.457Z,8.55
2023-05-22T01:23:45.064Z,8.99
2023-05-22T01:26:28.310Z,8.59
2023-05-22T01:29:20.645Z,8.47
2023-05-22T01:31:51.796Z,8.26
2023-05-22T01:34:21.553Z,8.20
2023-05-22T01:36:53.637Z,8.36
2023-05-22T01:39:23.214Z,8.42
2023-05-22T01:41:54.031Z,8.49
2023-05-22T01:44:22.105Z,8.53
2023-05-22T01:46:50.193Z,8.52
2023-05-22T01:49:18.744Z,8.60
2023-05-22T01:51:54.096Z,8.62
2023-05-22T01:54:37.903Z,8.60
2023-05-22T01:57:05.911Z,8.77
2023-05-22T01:59:51.088Z,8.83
2023-05-22T02:02:21.816Z,8.84
2023-05-22T02:04:56.899Z,8.91
2023-05-22T02:07:26.328Z,9.00
2023-05-22T02:09:57.438Z,9.08
2023-05-22T02:12:26.099Z,9.17
2023-05-22T02:14:54.899Z,9.22
2023-05-22T02:17:23.720Z,9.36
2023-05-22T02:19:52.173Z,9.59
2023-05-22T02:22:21.387Z,9.58
2023-05-22T02:24:50.465Z,9.49
2023-05-22T02:27:18.533Z,9.56
2023-05-22T02:29:47.124Z,9.56
2023-05-22T02:32:15.597Z,9.59
2023-05-22T02:34:44.436Z,9.68
2023-05-22T02:37:13.596Z,9.67
2023-05-22T02:39:42.011Z,9.82
2023-05-22T02:42:10.205Z,9.85
2023-05-22T02:44:39.665Z,10.00
2023-05-22T02:47:08.077Z,10.07
2023-05-22T02:49:36.398Z,10.12
2023-05-22T02:52:04.739Z,10.21
2023-05-22T02:54:33.116Z,10.25
2023-05-22T02:57:01.135Z,10.25
2023-05-22T02:59:29.125Z,10.33
2023-05-22T03:01:57.722Z,10.30
2023-05-22T03:04:26.007Z,10.57
2023-05-22T03:06:55.318Z,10.54
2023-05-22T03:09:23.877Z,10.59
2023-05-22T03:11:51.909Z,10.69
2023-05-22T03:14:19.912Z,10.62
2023-05-22T03:16:48.374Z,10.64
2023-05-22T03:19:17.706Z,10.77
2023-05-22T03:21:45.794Z,10.80
2023-05-22T03:24:14.509Z,10.83
2023-05-22T03:26:44.146Z,10.77
2023-05-22T03:29:13.832Z,10.90
2023-05-22T03:31:43.660Z,10.93
2023-05-22T03:34:12.561Z,10.97
2023-05-22T03:36:41.706Z,10.99
2023-05-22T03:39:10.311Z,11.02
2023-05-22T03:41:38.897Z,11.04
2023-05-22T03:44:07.276Z,11.00
2023-05-22T03:46:35.661Z,10.94
2023-05-22T03:49:04.104Z,10.90
2023-05-22T03:51:32.250Z,11.05
2023-05-22T03:54:01.412Z,11.12
2023-05-22T03:56:30.041Z,11.31
2023-05-22T03:58:58.102Z,11.39
2023-05-22T04:01:27.254Z,11.43
2023-05-22T04:03:57.549Z,11.46
2023-05-22T04:06:28.191Z,11.51
2023-05-22T04:09:09.969Z,11.54
2023-05-22T04:11:43.352Z,11.62
2023-05-22T04:14:11.897Z,11.54
2023-05-22T04:16:40.154Z,11.62
2023-05-22T04:19:09.869Z,11.66
2023-05-22T04:21:39.618Z,11.75
2023-05-22T04:24:20.060Z,11.89
2023-05-22T04:27:00.688Z,11.83
2023-05-22T04:29:41.895Z,11.87
2023-05-22T04:32:11.209Z,12.02
2023-05-22T04:34:39.377Z,11.99
2023-05-22T04:37:07.474Z,11.90
2023-05-22T04:39:35.815Z,12.09
2023-05-22T04:42:06.271Z,12.11
2023-05-22T04:44:46.750Z,12.07
2023-05-22T04:47:15.339Z,12.16
2023-05-22T04:49:44.037Z,12.16
2023-05-22T04:52:19.926Z,12.09
2023-05-22T04:54:52.124Z,12.26
2023-05-22T04:57:21.732Z,12.39
2023-05-22T04:59:50.602Z,12.61
2023-05-22T05:02:19.089Z,12.94
2023-05-22T05:04:48.708Z,13.08
2023-05-22T05:07:19.178Z,13.45
2023-05-22T05:09:48.097Z,13.76
2023-05-22T05:12:16.974Z,13.96
2023-05-22T05:14:49.750Z,14.08
2023-05-22T05:17:18.001Z,14.28
2023-05-22T05:22:28.415Z,14.70
2023-05-22T05:25:03.972Z,14.99
2023-05-22T05:27:33.974Z,15.37
2023-05-22T05:30:03.388Z,15.56
2023-05-22T05:32:34.091Z,15.68
2023-05-22T05:35:03.733Z,15.62
2023-05-22T05:37:45.710Z,15.97
2023-05-22T05:40:14.686Z,16.27
2023-05-22T05:42:43.777Z,16.36
2023-05-22T05:45:13.653Z,16.54
2023-05-22T05:47:43.080Z,16.65
2023-05-22T05:50:11.554Z,16.67
2023-05-22T05:52:40.024Z,16.85
2023-05-22T05:55:25.216Z,16.68
2023-05-22T05:57:55.557Z,16.64
2023-05-22T06:00:26.558Z,16.65
2023-05-22T06:02:56.442Z,16.57
2023-05-22T06:05:24.906Z,16.61
2023-05-22T06:07:59.103Z,16.13
2023-05-22T06:10:27.641Z,16.18
2023-05-22T06:12:57.323Z,16.74
2023-05-22T06:15:26.144Z,16.81
2023-05-22T06:17:55.063Z,17.09
2023-05-22T06:20:25.399Z,17.20
2023-05-22T06:22:53.533Z,17.34
2023-05-22T06:25:21.924Z,16.92
2023-05-22T06:27:50.215Z,17.35
2023-05-22T06:30:28.225Z,17.95
2023-05-22T06:33:08.404Z,18.36
2023-05-22T06:35:37.514Z,18.45
2023-05-22T06:38:06.133Z,20.70
2023-05-22T06:40:35.022Z,20.35
2023-05-22T06:43:03.211Z,21.10
2023-05-22T06:45:32.757Z,19.93
2023-05-22T06:48:02.274Z,19.65
2023-05-22T06:50:31.996Z,20.24
2023-05-22T06:53:00.432Z,20.12
2023-05-22T06:55:29.090Z,19.52
2023-05-22T06:57:58.656Z,19.04
2023-05-22T07:00:27.930Z,18.28
2023-05-22T07:03:01.002Z,18.97
2023-05-22T07:05:29.608Z,19.27
2023-05-22T07:07:59.574Z,18.81
2023-05-22T07:10:28.094Z,18.35
2023-05-22T07:12:59.227Z,18.92
2023-05-22T07:15:27.604Z,19.49
2023-05-22T07:17:57.509Z,19.46
2023-05-22T07:20:26.625Z,20.18
2023-05-22T07:22:55.340Z,21.05
2023-05-22T07:25:23.714Z,20.52
2023-05-22T07:27:52.497Z,19.80
2023-05-22T07:30:22.881Z,19.65
2023-05-22T07:32:51.059Z,19.60
2023-05-22T07:35:19.952Z,19.17
2023-05-22T07:37:48.410Z,18.89
2023-05-22T07:40:16.913Z,19.29
2023-05-22T07:42:45.157Z,20.62
2023-05-22T07:45:13.835Z,22.13
2023-05-22T07:47:42.335Z,23.52
2023-05-22T07:50:11.469Z,24.18
2023-05-22T07:52:41.005Z,23.32
2023-05-22T07:55:09.706Z,24.44
2023-05-22T07:57:39.646Z,23.58
2023-05-22T08:00:10.413Z,24.04
2023-05-22T08:02:43.665Z,22.71
2023-05-22T08:05:12.766Z,23.77
2023-05-22T08:07:41.016Z,23.96
2023-05-22T08:10:15.636Z,23.77
2023-05-22T08:12:44.560Z,22.91
2023-05-22T08:15:12.830Z,23.02
2023-05-22T08:17:40.901Z,22.67
2023-05-22T08:20:09.689Z,22.17
2023-05-22T08:22:39.907Z,22.72
2023-05-22T08:25:08.369Z,23.94
2023-05-22T08:27:36.733Z,24.94
2023-05-22T08:30:05.559Z,26.03
2023-05-22T08:32:34.881Z,25.29
2023-05-22T08:35:03.437Z,25.32
2023-05-22T08:37:33.575Z,24.51
2023-05-22T08:40:11.671Z,25.20
2023-05-22T08:42:40.375Z,22.79
2023-05-22T08:45:08.726Z,25.31
2023-05-22T08:47:39.769Z,25.33
2023-05-22T08:50:09.642Z,24.86
2023-05-22T08:53:02.083Z,23.86
2023-05-22T08:55:31.496Z,24.96
2023-05-22T08:58:00.897Z,26.26
2023-05-22T09:00:30.129Z,24.00
2023-05-22T09:02:58.497Z,23.38
2023-05-22T09:05:27.027Z,24.95
2023-05-22T09:08:02.637Z,25.84
2023-05-22T09:10:38.223Z,23.76
2023-05-22T09:13:11.638Z,23.39
2023-05-22T09:15:40.191Z,25.74
2023-05-22T09:18:08.527Z,26.78
2023-05-22T09:20:38.684Z,26.43
2023-05-22T09:23:25.798Z,23.82
2023-05-22T09:25:57.976Z,24.23
2023-05-22T09:28:26.978Z,25.25
2023-05-22T09:30:56.254Z,25.52
2023-05-22T09:33:24.609Z,28.87
2023-05-22T09:35:54.149Z,27.26
2023-05-22T09:38:24.204Z,24.75
2023-05-22T09:43:51.359Z,27.06
2023-05-22T09:46:19.941Z,28.73
2023-05-22T09:48:52.855Z,30.98
2023-05-22T09:51:26.855Z,29.49
2023-05-22T09:54:03.916Z,26.86
2023-05-22T09:56:39.855Z,26.29
2023-05-22T09:59:10.029Z,27.55
2023-05-22T10:01:40.240Z,29.01
2023-05-22T10:04:13.379Z,28.68
2023-05-22T10:06:43.669Z,32.42
2023-05-22T10:09:19.658Z,29.79
2023-05-22T10:11:50.786Z,29.63
2023-05-22T10:14:19.353Z,28.68
2023-05-22T10:16:47.760Z,28.60
2023-05-22T10:19:16.369Z,31.49
2023-05-22T10:21:47.642Z,28.23
2023-05-22T10:24:16.124Z,26.82
2023-05-22T10:26:45.158Z,27.44
2023-05-22T10:29:48.131Z,25.98
2023-05-22T10:32:33.804Z,25.50
2023-05-22T10:35:16.167Z,25.64
2023-05-22T10:37:59.229Z,25.11
2023-05-22T10:40:36.354Z,24.69
2023-05-22T10:43:07.163Z,25.80
2023-05-22T10:45:37.072Z,25.26
2023-05-22T10:48:10.072Z,26.74
2023-05-22T10:50:39.625Z,25.78
2023-05-22T10:53:32.236Z,25.46
2023-05-22T10:56:09.559Z,25.30
2023-05-22T10:58:49.872Z,25.10
2023-05-22T11:01:19.664Z,25.27
2023-05-22T11:03:54.930Z,27.03
2023-05-22T11:06:46.098Z,27.20
2023-05-22T11:09:43.539Z,25.71
2023-05-22T11:12:17.610Z,25.47
2023-05-22T11:14:55.961Z,25.45
2023-05-22T11:17:32.183Z,26.12
2023-05-22T11:20:07.538Z,26.07
2023-05-22T11:22:55.782Z,26.20
2023-05-22T11:25:25.487Z,26.14
2023-05-22T11:27:55.075Z,25.87
2023-05-22T11:30:39.909Z,25.99
2023-05-22T11:33:09.102Z,26.51
2023-05-22T11:35:38.228Z,26.50
2023-05-22T11:38:07.506Z,26.42
2023-05-22T11:40:36.188Z,26.62
2023-05-22T11:43:05.059Z,26.87
2023-05-22T11:45:38.465Z,27.05
2023-05-22T11:48:09.126Z,27.46
2023-05-22T11:50:42.191Z,28.21
2023-05-22T11:53:12.215Z,28.70
2023-05-22T11:55:42.810Z,29.02
2023-05-22T11:58:11.477Z,29.30
2023-05-22T12:00:39.791Z,29.66
2023-05-22T12:03:08.557Z,29.58
2023-05-22T12:05:36.953Z,29.62
2023-05-22T12:08:05.102Z,29.25
2023-05-22T12:10:33.681Z,28.43
2023-05-22T12:13:01.783Z,27.89
2023-05-22T12:15:41.566Z,27.53
2023-05-22T12:18:11.933Z,27.86
2023-05-22T12:20:44.152Z,27.90
2023-05-22T12:23:25.564Z,28.66
2023-05-22T12:26:02.393Z,28.53
2023-05-22T12:28:33.799Z,29.89
2023-05-22T12:31:02.218Z,30.83
2023-05-22T12:33:31.402Z,30.42
2023-05-22T12:35:59.736Z,30.51
2023-05-22T12:38:33.473Z,31.31
2023-05-22T12:41:03.242Z,26.27
2023-05-22T12:43:31.610Z,25.91
2023-05-22T12:46:12.097Z,23.73
2023-05-22T12:48:40.321Z,22.85
2023-05-22T12:51:10.031Z,23.43
2023-05-22T12:53:39.141Z,23.35
2023-05-22T12:56:08.302Z,22.61
2023-05-22T12:58:37.192Z,22.22
2023-05-22T13:01:06.280Z,21.21
2023-05-22T13:03:46.485Z,19.96
2023-05-22T13:06:29.100Z,19.67
2023-05-22T13:08:58.998Z,19.28
2023-05-22T13:11:28.492Z,19.91
2023-05-22T13:13:56.566Z,19.68
2023-05-22T13:16:24.735Z,20.44
2023-05-22T13:18:53.260Z,21.04
2023-05-22T13:21:21.510Z,20.27
2023-05-22T13:23:49.579Z,20.87
2023-05-22T13:26:18.329Z,21.11
2023-05-22T13:28:46.494Z,21.55
2023-05-22T13:31:14.583Z,21.94
2023-05-22T13:33:43.167Z,22.45
2023-05-22T13:36:11.211Z,23.29
2023-05-22T13:38:57.315Z,23.53
2023-05-22T13:41:25.963Z,24.24
2023-05-22T13:43:54.724Z,24.31
2023-05-22T13:46:23.023Z,23.70
2023-05-22T13:48:51.645Z,23.14
2023-05-22T13:51:31.563Z,22.82
2023-05-22T13:54:01.039Z,22.62
2023-05-22T13:56:29.202Z,22.43
2023-05-22T13:58:57.490Z,22.42
2023-05-22T14:01:38.111Z,22.34
2023-05-22T14:04:19.272Z,22.40
2023-05-22T14:06:47.638Z,22.65
2023-05-22T14:09:16.199Z,22.91
2023-05-22T14:11:44.327Z,23.15
2023-05-22T14:14:12.430Z,23.22
2023-05-22T14:16:40.783Z,23.16
2023-05-22T14:19:09.211Z,23.11
2023-05-22T14:21:37.396Z,23.28
2023-05-22T14:24:17.849Z,23.56
2023-05-22T14:26:58.494Z,23.71
2023-05-22T14:29:27.079Z,23.73
2023-05-22T14:32:03.536Z,23.85
2023-05-22T14:34:44.100Z,24.01
2023-05-22T14:37:12.060Z,24.13
2023-05-22T14:39:58.704Z,24.37
2023-05-22T14:42:27.150Z,25.34
2023-05-22T14:44:55.347Z,26.25
2023-05-22T14:47:23.492Z,27.35
2023-05-22T14:49:52.585Z,28.18
2023-05-22T14:52:23.297Z,28.05
2023-05-22T14:54:52.714Z,27.94
2023-05-22T14:57:20.837Z,28.88
2023-05-22T14:59:48.785Z,29.74
2023-05-22T15:02:17.422Z,30.29
2023-05-22T15:04:46.677Z,30.68
2023-05-22T15:07:35.895Z,31.03
2023-05-22T15:10:11.603Z,31.64
2023-05-22T15:12:39.788Z,31.98
2023-05-22T15:15:08.364Z,32.26
2023-05-22T15:17:42.368Z,32.16
2023-05-22T15:20:12.488Z,32.13
2023-05-22T15:22:41.067Z,32.17
2023-05-22T15:25:12.268Z,31.92
2023-05-22T15:27:41.125Z,31.53
2023-05-22T15:30:12.707Z,31.45
2023-05-22T15:32:41.042Z,31.44
2023-05-22T15:35:09.739Z,31.41
2023-05-22T15:37:37.879Z,31.51
2023-05-22T15:40:06.984Z,31.42
2023-05-22T15:42:35.380Z,31.09
2023-05-22T15:45:03.556Z,30.74
2023-05-22T15:47:34.757Z,30.31
2023-05-22T15:50:02.945Z,29.70
2023-05-22T15:52:32.489Z,29.38
2023-05-22T15:55:00.664Z,29.11
2023-05-22T15:57:31.545Z,28.81
2023-05-22T16:00:00.991Z,28.41
2023-05-22T16:02:29.134Z,28.33
2023-05-22T16:04:57.556Z,28.20
2023-05-22T16:07:26.029Z,28.04
2023-05-22T16:09:54.609Z,28.06
2023-05-22T16:12:23.059Z,28.00
2023-05-22T16:14:51.883Z,28.04
2023-05-22T16:17:21.903Z,28.01
2023-05-22T16:19:51.687Z,27.74
2023-05-22T16:22:21.986Z,27.37
2023-05-22T16:24:51.160Z,26.92
2023-05-22T16:27:19.290Z,26.50
2023-05-22T16:29:47.405Z,26.01
2023-05-22T16:32:15.810Z,25.41
2023-05-22T16:34:43.957Z,24.82
2023-05-22T16:37:11.999Z,23.98
2023-05-22T16:39:41.714Z,23.61
2023-05-22T16:42:09.798Z,22.98
2023-05-22T16:44:37.904Z,22.84
2023-05-22T16:47:06.494Z,22.36
2023-05-22T16:49:34.578Z,21.47
2023-05-22T16:52:14.881Z,21.49
2023-05-22T16:54:43.470Z,21.58
2023-05-22T16:57:11.543Z,20.79
2023-05-22T16:59:39.700Z,20.50
2023-05-22T17:02:09.281Z,20.47
2023-05-22T17:04:37.880Z,20.67
2023-05-22T17:07:06.153Z,20.53
2023-05-22T17:09:35.498Z,20.20
2023-05-22T17:12:03.737Z,19.64
2023-05-22T17:14:33.852Z,19.30
2023-05-22T17:17:02.437Z,21.01
2023-05-22T17:19:30.947Z,19.40
2023-05-22T17:21:59.085Z,19.38
2023-05-22T17:24:28.255Z,18.89
2023-05-22T17:26:56.757Z,19.10
2023-05-22T17:29:27.154Z,19.23
2023-05-22T17:31:57.168Z,19.38
2023-05-22T17:34:25.678Z,18.78
2023-05-22T17:36:53.710Z,17.97
2023-05-22T17:39:22.331Z,17.74
2023-05-22T17:41:50.628Z,17.72
2023-05-22T17:44:18.821Z,17.75
2023-05-22T17:46:47.230Z,17.49
2023-05-22T17:49:15.441Z,17.82
2023-05-22T17:51:43.413Z,17.46
2023-05-22T17:54:11.960Z,17.52
2023-05-22T17:56:40.025Z,17.52
2023-05-22T17:59:08.722Z,17.29
2023-05-22T18:01:37.270Z,17.74
2023-05-22T18:04:06.634Z,17.49
2023-05-22T18:06:35.040Z,17.22
2023-05-22T18:09:04.868Z,17.45
2023-05-22T18:11:34.151Z,17.73
2023-05-22T18:14:02.351Z,17.17
2023-05-22T18:16:30.663Z,16.80
2023-05-22T18:18:59.611Z,17.18
2023-05-22T18:21:27.993Z,17.37
2023-05-22T18:23:56.744Z,18.14
2023-05-22T18:26:25.374Z,17.26
2023-05-22T18:29:05.384Z,17.44
2023-05-22T18:31:34.267Z,17.25
2023-05-22T18:34:02.475Z,17.10
2023-05-22T18:36:31.962Z,17.31
2023-05-22T18:39:00.732Z,16.78
2023-05-22T18:41:29.022Z,16.71
2023-05-22T18:43:57.598Z,16.74
2023-05-22T18:46:26.259Z,17.08
2023-05-22T18:48:54.928Z,17.61
2023-05-22T18:51:36.268Z,17.37
2023-05-22T18:54:04.688Z,17.13
2023-05-22T18:56:32.966Z,17.87
2023-05-22T18:59:13.177Z,16.94
2023-05-22T19:01:42.001Z,17.00
2023-05-22T19:04:10.358Z,16.59
2023-05-22T19:06:42.800Z,16.52
2023-05-22T19:09:11.364Z,16.75
2023-05-22T19:11:39.934Z,16.63
2023-05-22T19:14:08.125Z,16.67
2023-05-22T19:16:36.760Z,16.93
2023-05-22T19:19:04.948Z,16.44
2023-05-22T19:21:33.361Z,16.38
2023-05-22T19:24:17.097Z,16.59
2023-05-22T19:26:45.395Z,16.39
2023-05-22T19:29:13.995Z,16.92
2023-05-22T19:31:42.042Z,16.60
2023-05-22T19:34:10.271Z,16.65
2023-05-22T19:36:38.893Z,16.24
2023-05-22T19:39:07.035Z,16.17
2023-05-22T19:41:35.139Z,15.77
2023-05-22T19:44:03.974Z,15.67
2023-05-22T19:46:32.185Z,16.17
2023-05-22T19:49:00.360Z,15.52
2023-05-22T19:51:28.921Z,15.84
2023-05-22T19:53:57.029Z,15.57
2023-05-22T19:56:25.333Z,15.61
2023-05-22T19:58:53.614Z,15.51
2023-05-22T20:01:21.706Z,15.53
2023-05-22T20:03:50.463Z,15.65
2023-05-22T20:06:19.138Z,15.46
2023-05-22T20:08:47.301Z,15.22
2023-05-22T20:11:15.876Z,15.23
2023-05-22T20:13:44.033Z,15.00
2023-05-22T20:16:13.126Z,14.81
2023-05-22T20:18:42.104Z,14.97
2023-05-22T20:21:10.197Z,15.01
2023-05-22T20:23:40.181Z,15.07
2023-05-22T20:26:08.602Z,15.33
2023-05-22T20:28:36.573Z,15.00
2023-05-22T20:31:06.268Z,14.95
2023-05-22T20:33:34.876Z,14.72
2023-05-22T20:36:03.089Z,14.46
2023-05-22T20:38:31.317Z,14.29
2023-05-22T20:41:00.031Z,14.21
2023-05-22T20:43:31.088Z,14.28
2023-05-22T20:45:59.600Z,14.50
2023-05-22T20:48:27.675Z,14.78
2023-05-22T20:50:56.048Z,14.45
2023-05-22T20:53:24.944Z,14.60
2023-05-22T20:55:53.561Z,14.34
2023-05-22T20:58:23.256Z,14.47
2023-05-22T21:00:51.666Z,14.65
2023-05-22T21:03:19.621Z,14.64
2023-05-22T21:05:47.944Z,14.48
2023-05-22T21:08:16.736Z,14.53
2023-05-22T21:10:44.931Z,14.26
2023-05-22T21:13:13.043Z,14.28
2023-05-22T21:15:41.612Z,14.29
2023-05-22T21:18:09.627Z,14.33
2023-05-22T21:20:38.082Z,14.01
2023-05-22T21:23:06.589Z,14.07
2023-05-22T21:25:34.775Z,14.09
2023-05-22T21:28:03.104Z,14.32
2023-05-22T21:30:43.638Z,14.42
2023-05-22T21:33:12.361Z,14.41
2023-05-22T21:35:40.740Z,14.23
2023-05-22T21:38:08.835Z,13.79
2023-05-22T21:40:36.858Z,13.85
2023-05-22T21:43:05.238Z,13.97
2023-05-22T21:45:33.240Z,13.85
2023-05-22T21:48:01.442Z,13.69
2023-05-22T21:50:30.339Z,13.59
2023-05-22T21:52:58.392Z,13.93
2023-05-22T21:55:26.394Z,13.70
2023-05-22T21:57:56.538Z,13.53
